Terminal Aerodrome Forecast
Issued by NWS

Home | Current Version | Previous Version | Text Only | Print | Product List | Glossary On
Versions: 1 2 3 4 5 6 7 8 9 10 11 12 13 14
607
FTPA31 PHFO 251733
TAFHJR
TAF
PHJR 251733Z 2518/2618 06005KT P6SM SKC
     FM252000 13009G15KT P6SM SCT035 BKN050
     FM260300 06006KT P6SM FEW035 SCT050=

USA.gov is the U.S. government's official web portal to all federal, state and local government web resources and services.